sensor_id;sensor_type;location;lat;lon;timestamp;P1;durP1;ratioP1;P2;durP2;ratioP2
72791;SDS011;60907;53.268;8.764;2023-02-03T00:00:05;11.33;;;4.83;;
72791;SDS011;60907;53.268;8.764;2023-02-03T00:02:31;11.65;;;4.95;;
72791;SDS011;60907;53.268;8.764;2023-02-03T00:04:57;11.27;;;4.63;;
72791;SDS011;60907;53.268;8.764;2023-02-03T00:07:22;14.50;;;4.90;;
72791;SDS011;60907;53.268;8.764;2023-02-03T00:09:47;10.80;;;4.70;;
72791;SDS011;60907;53.268;8.764;2023-02-03T00:12:13;13.77;;;4.72;;
72791;SDS011;60907;53.268;8.764;2023-02-03T00:14:38;10.45;;;4.30;;
72791;SDS011;60907;53.268;8.764;2023-02-03T00:17:04;12.70;;;4.00;;
72791;SDS011;60907;53.268;8.764;2023-02-03T00:19:29;11.18;;;4.57;;
72791;SDS011;60907;53.268;8.764;2023-02-03T00:21:55;12.73;;;4.07;;
72791;SDS011;60907;53.268;8.764;2023-02-03T00:24:20;8.73;;;3.85;;
72791;SDS011;60907;53.268;8.764;2023-02-03T00:26:48;12.57;;;4.28;;
72791;SDS011;60907;53.268;8.764;2023-02-03T00:29:13;11.63;;;3.65;;
72791;SDS011;60907;53.268;8.764;2023-02-03T00:31:39;11.27;;;4.30;;
72791;SDS011;60907;53.268;8.764;2023-02-03T00:34:04;8.07;;;3.80;;
72791;SDS011;60907;53.268;8.764;2023-02-03T00:36:30;9.88;;;3.42;;
72791;SDS011;60907;53.268;8.764;2023-02-03T00:38:56;9.88;;;3.35;;
72791;SDS011;60907;53.268;8.764;2023-02-03T00:41:21;12.80;;;3.70;;
72791;SDS011;60907;53.268;8.764;2023-02-03T00:43:47;8.70;;;3.50;;
72791;SDS011;60907;53.268;8.764;2023-02-03T00:46:13;11.30;;;3.60;;
72791;SDS011;60907;53.268;8.764;2023-02-03T00:48:38;7.82;;;3.10;;
72791;SDS011;60907;53.268;8.764;2023-02-03T00:51:04;8.27;;;3.00;;
72791;SDS011;60907;53.268;8.764;2023-02-03T00:53:30;11.48;;;3.45;;
72791;SDS011;60907;53.268;8.764;2023-02-03T00:55:55;7.72;;;3.10;;
72791;SDS011;60907;53.268;8.764;2023-02-03T00:58:21;10.95;;;3.80;;
72791;SDS011;60907;53.268;8.764;2023-02-03T01:00:46;10.48;;;3.00;;
72791;SDS011;60907;53.268;8.764;2023-02-03T01:03:11;5.35;;;2.60;;
72791;SDS011;60907;53.268;8.764;2023-02-03T01:05:37;6.53;;;3.13;;
72791;SDS011;60907;53.268;8.764;2023-02-03T01:08:02;7.25;;;2.80;;
72791;SDS011;60907;53.268;8.764;2023-02-03T01:10:28;7.60;;;2.60;;
72791;SDS011;60907;53.268;8.764;2023-02-03T01:12:54;9.80;;;3.28;;
72791;SDS011;60907;53.268;8.764;2023-02-03T01:15:19;6.90;;;2.85;;
72791;SDS011;60907;53.268;8.764;2023-02-03T01:17:45;5.88;;;2.28;;
72791;SDS011;60907;53.268;8.764;2023-02-03T01:20:10;3.27;;;2.00;;
72791;SDS011;60907;53.268;8.764;2023-02-03T01:22:37;8.57;;;2.50;;
72791;SDS011;60907;53.268;8.764;2023-02-03T01:25:03;6.25;;;1.98;;
72791;SDS011;60907;53.268;8.764;2023-02-03T01:27:30;7.78;;;2.63;;
72791;SDS011;60907;53.268;8.764;2023-02-03T01:29:56;9.13;;;2.20;;
72791;SDS011;60907;53.268;8.764;2023-02-03T01:32:21;6.15;;;1.70;;
72791;SDS011;60907;53.268;8.764;2023-02-03T01:34:47;4.40;;;1.77;;
72791;SDS011;60907;53.268;8.764;2023-02-03T01:37:12;6.63;;;1.73;;
72791;SDS011;60907;53.268;8.764;2023-02-03T01:39:41;5.93;;;1.90;;
72791;SDS011;60907;53.268;8.764;2023-02-03T01:42:07;7.40;;;2.13;;
72791;SDS011;60907;53.268;8.764;2023-02-03T01:44:40;7.50;;;2.10;;
72791;SDS011;60907;53.268;8.764;2023-02-03T01:50:29;7.80;;;2.20;;
72791;SDS011;60907;53.268;8.764;2023-02-03T01:52:38;7.30;;;1.80;;
72791;SDS011;60907;53.268;8.764;2023-02-03T01:55:06;4.43;;;1.63;;
72791;SDS011;60907;53.268;8.764;2023-02-03T01:57:33;4.18;;;1.80;;
72791;SDS011;60907;53.268;8.764;2023-02-03T02:00:03;7.05;;;1.90;;
72791;SDS011;60907;53.268;8.764;2023-02-03T02:02:30;7.95;;;2.38;;
72791;SDS011;60907;53.268;8.764;2023-02-03T02:07:33;7.13;;;2.40;;
72791;SDS011;60907;53.268;8.764;2023-02-03T02:10:00;6.20;;;1.88;;
72791;SDS011;60907;53.268;8.764;2023-02-03T02:12:26;5.65;;;2.15;;
72791;SDS011;60907;53.268;8.764;2023-02-03T02:14:51;4.40;;;1.42;;
72791;SDS011;60907;53.268;8.764;2023-02-03T02:33:23;4.05;;;1.60;;
72791;SDS011;60907;53.268;8.764;2023-02-03T02:38:47;5.10;;;2.25;;
72791;SDS011;60907;53.268;8.764;2023-02-03T02:41:33;5.18;;;1.42;;
72791;SDS011;60907;53.268;8.764;2023-02-03T02:46:48;6.78;;;1.85;;
72791;SDS011;60907;53.268;8.764;2023-02-03T02:52:17;7.68;;;2.03;;
72791;SDS011;60907;53.268;8.764;2023-02-03T02:54:45;4.63;;;1.27;;
72791;SDS011;60907;53.268;8.764;2023-02-03T02:57:13;7.80;;;1.70;;
72791;SDS011;60907;53.268;8.764;2023-02-03T02:59:40;5.15;;;1.50;;
72791;SDS011;60907;53.268;8.764;2023-02-03T03:02:07;5.18;;;2.00;;
72791;SDS011;60907;53.268;8.764;2023-02-03T03:04:34;7.18;;;1.80;;
72791;SDS011;60907;53.268;8.764;2023-02-03T03:07:00;7.15;;;1.40;;
72791;SDS011;60907;53.268;8.764;2023-02-03T03:09:42;7.38;;;1.83;;
72791;SDS011;60907;53.268;8.764;2023-02-03T03:15:09;7.05;;;1.77;;
72791;SDS011;60907;53.268;8.764;2023-02-03T03:17:40;4.82;;;1.50;;
72791;SDS011;60907;53.268;8.764;2023-02-03T03:20:08;4.93;;;1.60;;
72791;SDS011;60907;53.268;8.764;2023-02-03T03:22:38;4.72;;;1.52;;
72791;SDS011;60907;53.268;8.764;2023-02-03T03:25:12;6.88;;;1.40;;
72791;SDS011;60907;53.268;8.764;2023-02-03T03:27:45;4.90;;;1.75;;
72791;SDS011;60907;53.268;8.764;2023-02-03T03:30:15;5.50;;;1.55;;
72791;SDS011;60907;53.268;8.764;2023-02-03T03:32:46;3.45;;;1.60;;
72791;SDS011;60907;53.268;8.764;2023-02-03T03:35:12;5.65;;;1.75;;
72791;SDS011;60907;53.268;8.764;2023-02-03T03:40:20;4.32;;;1.50;;
72791;SDS011;60907;53.268;8.764;2023-02-03T03:42:53;2.95;;;1.20;;
72791;SDS011;60907;53.268;8.764;2023-02-03T03:45:48;1.88;;;1.10;;
72791;SDS011;60907;53.268;8.764;2023-02-03T03:48:27;6.32;;;1.67;;
72791;SDS011;60907;53.268;8.764;2023-02-03T03:51:03;3.33;;;1.40;;
72791;SDS011;60907;53.268;8.764;2023-02-03T03:53:31;4.78;;;1.30;;
72791;SDS011;60907;53.268;8.764;2023-02-03T03:55:59;6.93;;;1.20;;
72791;SDS011;60907;53.268;8.764;2023-02-03T03:58:27;5.25;;;1.23;;
72791;SDS011;60907;53.268;8.764;2023-02-03T04:00:55;3.22;;;1.02;;
72791;SDS011;60907;53.268;8.764;2023-02-03T04:03:23;4.47;;;1.17;;
72791;SDS011;60907;53.268;8.764;2023-02-03T04:05:52;7.05;;;1.48;;
72791;SDS011;60907;53.268;8.764;2023-02-03T04:08:18;6.78;;;1.50;;
72791;SDS011;60907;53.268;8.764;2023-02-03T04:10:43;5.00;;;1.48;;
72791;SDS011;60907;53.268;8.764;2023-02-03T04:13:09;3.70;;;1.30;;
72791;SDS011;60907;53.268;8.764;2023-02-03T04:15:36;5.15;;;1.55;;
72791;SDS011;60907;53.268;8.764;2023-02-03T04:18:02;3.22;;;1.40;;
72791;SDS011;60907;53.268;8.764;2023-02-03T04:20:28;5.82;;;1.60;;
72791;SDS011;60907;53.268;8.764;2023-02-03T04:22:55;8.43;;;1.42;;
72791;SDS011;60907;53.268;8.764;2023-02-03T04:25:21;6.45;;;1.35;;
72791;SDS011;60907;53.268;8.764;2023-02-03T04:27:46;7.72;;;1.65;;
72791;SDS011;60907;53.268;8.764;2023-02-03T04:30:12;6.10;;;1.38;;
72791;SDS011;60907;53.268;8.764;2023-02-03T04:32:38;7.50;;;1.42;;
72791;SDS011;60907;53.268;8.764;2023-02-03T04:35:04;4.22;;;1.65;;
72791;SDS011;60907;53.268;8.764;2023-02-03T04:37:31;5.32;;;1.30;;
72791;SDS011;60907;53.268;8.764;2023-02-03T04:39:56;5.65;;;1.83;;
72791;SDS011;60907;53.268;8.764;2023-02-03T04:42:22;5.35;;;1.50;;
72791;SDS011;60907;53.268;8.764;2023-02-03T04:44:48;4.72;;;1.77;;
72791;SDS011;60907;53.268;8.764;2023-02-03T04:47:13;7.82;;;1.60;;
72791;SDS011;60907;53.268;8.764;2023-02-03T04:49:40;7.35;;;1.58;;
72791;SDS011;60907;53.268;8.764;2023-02-03T04:52:05;5.50;;;1.23;;
72791;SDS011;60907;53.268;8.764;2023-02-03T04:54:31;6.10;;;1.75;;
72791;SDS011;60907;53.268;8.764;2023-02-03T04:56:56;7.03;;;1.48;;
72791;SDS011;60907;53.268;8.764;2023-02-03T04:59:22;7.97;;;1.55;;
72791;SDS011;60907;53.268;8.764;2023-02-03T05:01:47;4.97;;;1.55;;
72791;SDS011;60907;53.268;8.764;2023-02-03T05:04:12;8.38;;;1.50;;
72791;SDS011;60907;53.268;8.764;2023-02-03T05:06:38;4.43;;;1.70;;
72791;SDS011;60907;53.268;8.764;2023-02-03T05:09:03;7.50;;;1.98;;
72791;SDS011;60907;53.268;8.764;2023-02-03T05:11:29;4.40;;;1.15;;
72791;SDS011;60907;53.268;8.764;2023-02-03T05:13:55;4.72;;;1.27;;
72791;SDS011;60907;53.268;8.764;2023-02-03T05:16:20;2.58;;;1.10;;
72791;SDS011;60907;53.268;8.764;2023-02-03T05:18:46;5.70;;;1.30;;
72791;SDS011;60907;53.268;8.764;2023-02-03T05:21:11;6.63;;;1.30;;
72791;SDS011;60907;53.268;8.764;2023-02-03T05:23:37;6.00;;;1.40;;
72791;SDS011;60907;53.268;8.764;2023-02-03T05:26:02;6.30;;;1.65;;
72791;SDS011;60907;53.268;8.764;2023-02-03T05:28:28;4.65;;;1.38;;
72791;SDS011;60907;53.268;8.764;2023-02-03T05:30:53;12.40;;;1.90;;
72791;SDS011;60907;53.268;8.764;2023-02-03T05:33:22;5.15;;;1.40;;
72791;SDS011;60907;53.268;8.764;2023-02-03T05:35:48;9.48;;;1.50;;
72791;SDS011;60907;53.268;8.764;2023-02-03T05:38:13;8.73;;;1.80;;
72791;SDS011;60907;53.268;8.764;2023-02-03T05:40:39;5.47;;;1.55;;
72791;SDS011;60907;53.268;8.764;2023-02-03T05:43:23;10.68;;;1.88;;
72791;SDS011;60907;53.268;8.764;2023-02-03T05:45:49;4.93;;;1.48;;
72791;SDS011;60907;53.268;8.764;2023-02-03T05:48:14;7.03;;;1.52;;
72791;SDS011;60907;53.268;8.764;2023-02-03T05:50:39;6.22;;;1.60;;
72791;SDS011;60907;53.268;8.764;2023-02-03T05:53:05;5.10;;;1.63;;
72791;SDS011;60907;53.268;8.764;2023-02-03T05:55:31;12.45;;;1.67;;
72791;SDS011;60907;53.268;8.764;2023-02-03T05:57:57;4.32;;;1.88;;
72791;SDS011;60907;53.268;8.764;2023-02-03T06:00:24;7.15;;;1.67;;
72791;SDS011;60907;53.268;8.764;2023-02-03T06:02:53;5.70;;;1.90;;
72791;SDS011;60907;53.268;8.764;2023-02-03T06:05:20;5.43;;;2.20;;
72791;SDS011;60907;53.268;8.764;2023-02-03T06:07:46;7.28;;;2.17;;
72791;SDS011;60907;53.268;8.764;2023-02-03T06:10:12;8.45;;;1.92;;
72791;SDS011;60907;53.268;8.764;2023-02-03T06:12:38;5.85;;;1.85;;
72791;SDS011;60907;53.268;8.764;2023-02-03T06:15:03;8.45;;;2.08;;
72791;SDS011;60907;53.268;8.764;2023-02-03T06:17:29;11.65;;;2.10;;
72791;SDS011;60907;53.268;8.764;2023-02-03T06:19:55;4.20;;;2.00;;
72791;SDS011;60907;53.268;8.764;2023-02-03T06:22:20;3.40;;;1.95;;
72791;SDS011;60907;53.268;8.764;2023-02-03T06:24:46;10.52;;;1.90;;
72791;SDS011;60907;53.268;8.764;2023-02-03T06:27:12;5.43;;;2.22;;
72791;SDS011;60907;53.268;8.764;2023-02-03T06:29:41;8.75;;;2.30;;
72791;SDS011;60907;53.268;8.764;2023-02-03T06:32:07;6.30;;;1.77;;
72791;SDS011;60907;53.268;8.764;2023-02-03T06:34:33;7.05;;;1.92;;
72791;SDS011;60907;53.268;8.764;2023-02-03T06:36:58;9.60;;;1.80;;
72791;SDS011;60907;53.268;8.764;2023-02-03T06:39:24;6.00;;;1.70;;
72791;SDS011;60907;53.268;8.764;2023-02-03T06:41:49;6.03;;;1.55;;
72791;SDS011;60907;53.268;8.764;2023-02-03T06:44:16;7.57;;;1.75;;
72791;SDS011;60907;53.268;8.764;2023-02-03T06:46:42;8.50;;;1.55;;
72791;SDS011;60907;53.268;8.764;2023-02-03T06:49:07;6.15;;;1.98;;
72791;SDS011;60907;53.268;8.764;2023-02-03T06:51:33;6.50;;;1.60;;
72791;SDS011;60907;53.268;8.764;2023-02-03T06:53:59;6.35;;;2.15;;
72791;SDS011;60907;53.268;8.764;2023-02-03T06:56:24;7.65;;;1.90;;
72791;SDS011;60907;53.268;8.764;2023-02-03T06:58:50;7.55;;;1.58;;
72791;SDS011;60907;53.268;8.764;2023-02-03T07:01:15;10.65;;;1.67;;
72791;SDS011;60907;53.268;8.764;2023-02-03T07:03:41;6.13;;;1.75;;
72791;SDS011;60907;53.268;8.764;2023-02-03T07:06:06;6.05;;;1.65;;
72791;SDS011;60907;53.268;8.764;2023-02-03T07:08:33;9.07;;;1.90;;
72791;SDS011;60907;53.268;8.764;2023-02-03T07:10:59;9.30;;;2.03;;
72791;SDS011;60907;53.268;8.764;2023-02-03T07:13:24;14.98;;;2.08;;
72791;SDS011;60907;53.268;8.764;2023-02-03T07:15:49;5.60;;;1.58;;
72791;SDS011;60907;53.268;8.764;2023-02-03T07:18:15;9.10;;;2.00;;
72791;SDS011;60907;53.268;8.764;2023-02-03T07:20:42;5.32;;;1.40;;
72791;SDS011;60907;53.268;8.764;2023-02-03T07:23:07;5.85;;;1.80;;
72791;SDS011;60907;53.268;8.764;2023-02-03T07:25:33;9.75;;;1.90;;
72791;SDS011;60907;53.268;8.764;2023-02-03T07:27:58;6.55;;;1.83;;
72791;SDS011;60907;53.268;8.764;2023-02-03T07:30:23;8.48;;;1.70;;
72791;SDS011;60907;53.268;8.764;2023-02-03T07:32:49;12.82;;;1.48;;
72791;SDS011;60907;53.268;8.764;2023-02-03T07:35:16;5.05;;;1.50;;
72791;SDS011;60907;53.268;8.764;2023-02-03T07:37:41;5.72;;;1.58;;
72791;SDS011;60907;53.268;8.764;2023-02-03T07:40:07;5.57;;;1.50;;
72791;SDS011;60907;53.268;8.764;2023-02-03T07:42:34;10.20;;;2.00;;
72791;SDS011;60907;53.268;8.764;2023-02-03T07:45:00;4.47;;;1.52;;
72791;SDS011;60907;53.268;8.764;2023-02-03T07:47:25;9.30;;;1.40;;
72791;SDS011;60907;53.268;8.764;2023-02-03T07:49:50;4.72;;;1.13;;
72791;SDS011;60907;53.268;8.764;2023-02-03T07:52:16;5.90;;;1.50;;
72791;SDS011;60907;53.268;8.764;2023-02-03T07:54:41;5.43;;;1.30;;
72791;SDS011;60907;53.268;8.764;2023-02-03T07:57:07;13.18;;;1.60;;
72791;SDS011;60907;53.268;8.764;2023-02-03T07:59:32;8.82;;;2.10;;
72791;SDS011;60907;53.268;8.764;2023-02-03T08:01:58;14.95;;;1.75;;
72791;SDS011;60907;53.268;8.764;2023-02-03T08:04:23;7.63;;;1.38;;
72791;SDS011;60907;53.268;8.764;2023-02-03T08:06:49;8.82;;;1.50;;
72791;SDS011;60907;53.268;8.764;2023-02-03T08:09:14;8.18;;;1.77;;
72791;SDS011;60907;53.268;8.764;2023-02-03T08:11:40;10.80;;;1.92;;
72791;SDS011;60907;53.268;8.764;2023-02-03T08:14:05;5.60;;;1.40;;
72791;SDS011;60907;53.268;8.764;2023-02-03T08:16:31;9.45;;;1.80;;
72791;SDS011;60907;53.268;8.764;2023-02-03T08:18:56;11.70;;;1.70;;
72791;SDS011;60907;53.268;8.764;2023-02-03T08:21:22;8.45;;;1.73;;
72791;SDS011;60907;53.268;8.764;2023-02-03T08:23:48;10.25;;;1.60;;
72791;SDS011;60907;53.268;8.764;2023-02-03T08:26:13;11.77;;;2.08;;
72791;SDS011;60907;53.268;8.764;2023-02-03T08:28:39;13.70;;;2.17;;
72791;SDS011;60907;53.268;8.764;2023-02-03T08:31:10;7.50;;;1.80;;
72791;SDS011;60907;53.268;8.764;2023-02-03T08:33:36;11.13;;;1.95;;
72791;SDS011;60907;53.268;8.764;2023-02-03T08:36:02;12.63;;;1.90;;
72791;SDS011;60907;53.268;8.764;2023-02-03T08:40:55;14.13;;;2.47;;
72791;SDS011;60907;53.268;8.764;2023-02-03T08:43:20;16.40;;;1.90;;
72791;SDS011;60907;53.268;8.764;2023-02-03T08:45:45;14.73;;;3.17;;
72791;SDS011;60907;53.268;8.764;2023-02-03T08:48:11;14.82;;;2.75;;
72791;SDS011;60907;53.268;8.764;2023-02-03T08:50:36;11.73;;;1.42;;
72791;SDS011;60907;53.268;8.764;2023-02-03T08:53:04;14.18;;;1.90;;
72791;SDS011;60907;53.268;8.764;2023-02-03T08:55:30;9.18;;;1.17;;
72791;SDS011;60907;53.268;8.764;2023-02-03T08:57:55;5.95;;;1.13;;
72791;SDS011;60907;53.268;8.764;2023-02-03T09:00:21;10.32;;;2.30;;
72791;SDS011;60907;53.268;8.764;2023-02-03T09:02:46;11.80;;;1.88;;
72791;SDS011;60907;53.268;8.764;2023-02-03T09:05:12;9.82;;;2.25;;
72791;SDS011;60907;53.268;8.764;2023-02-03T09:07:37;23.05;;;3.40;;
72791;SDS011;60907;53.268;8.764;2023-02-03T09:10:03;10.82;;;2.53;;
72791;SDS011;60907;53.268;8.764;2023-02-03T09:12:29;12.43;;;1.70;;
72791;SDS011;60907;53.268;8.764;2023-02-03T09:14:54;14.80;;;2.28;;
72791;SDS011;60907;53.268;8.764;2023-02-03T09:17:20;17.27;;;2.78;;
72791;SDS011;60907;53.268;8.764;2023-02-03T09:19:45;15.20;;;2.45;;
72791;SDS011;60907;53.268;8.764;2023-02-03T09:22:10;15.25;;;2.40;;
72791;SDS011;60907;53.268;8.764;2023-02-03T09:24:37;16.30;;;2.90;;
72791;SDS011;60907;53.268;8.764;2023-02-03T09:27:02;16.70;;;3.03;;
72791;SDS011;60907;53.268;8.764;2023-02-03T09:29:28;14.80;;;2.47;;
72791;SDS011;60907;53.268;8.764;2023-02-03T09:31:53;12.38;;;1.77;;
72791;SDS011;60907;53.268;8.764;2023-02-03T09:34:19;20.70;;;2.13;;
72791;SDS011;60907;53.268;8.764;2023-02-03T09:36:45;15.60;;;2.03;;
72791;SDS011;60907;53.268;8.764;2023-02-03T09:39:11;14.68;;;2.42;;
72791;SDS011;60907;53.268;8.764;2023-02-03T09:47:15;14.32;;;2.20;;
72791;SDS011;60907;53.268;8.764;2023-02-03T09:49:44;17.33;;;2.92;;
72791;SDS011;60907;53.268;8.764;2023-02-03T09:52:21;17.30;;;2.00;;
72791;SDS011;60907;53.268;8.764;2023-02-03T09:57:27;18.42;;;2.53;;
72791;SDS011;60907;53.268;8.764;2023-02-03T09:59:55;20.80;;;3.28;;
72791;SDS011;60907;53.268;8.764;2023-02-03T10:04:58;14.80;;;3.05;;
72791;SDS011;60907;53.268;8.764;2023-02-03T10:13:03;16.27;;;2.83;;
72791;SDS011;60907;53.268;8.764;2023-02-03T10:18:31;12.80;;;1.98;;
72791;SDS011;60907;53.268;8.764;2023-02-03T10:21:05;24.65;;;2.78;;
72791;SDS011;60907;53.268;8.764;2023-02-03T10:23:38;16.60;;;2.05;;
72791;SDS011;60907;53.268;8.764;2023-02-03T10:26:05;12.35;;;2.42;;
72791;SDS011;60907;53.268;8.764;2023-02-03T10:28:35;18.80;;;2.55;;
72791;SDS011;60907;53.268;8.764;2023-02-03T10:31:05;20.20;;;3.50;;
72791;SDS011;60907;53.268;8.764;2023-02-03T10:33:37;16.52;;;2.55;;
72791;SDS011;60907;53.268;8.764;2023-02-03T10:41:09;16.20;;;3.30;;
72791;SDS011;60907;53.268;8.764;2023-02-03T10:43:34;17.75;;;2.80;;
72791;SDS011;60907;53.268;8.764;2023-02-03T10:46:15;19.85;;;2.70;;
72791;SDS011;60907;53.268;8.764;2023-02-03T10:48:44;15.50;;;2.92;;
72791;SDS011;60907;53.268;8.764;2023-02-03T10:53:49;14.43;;;2.78;;
72791;SDS011;60907;53.268;8.764;2023-02-03T10:56:22;17.75;;;2.75;;
72791;SDS011;60907;53.268;8.764;2023-02-03T10:59:09;21.02;;;2.55;;
72791;SDS011;60907;53.268;8.764;2023-02-03T11:01:52;22.35;;;3.25;;
72791;SDS011;60907;53.268;8.764;2023-02-03T11:04:23;15.43;;;3.13;;
72791;SDS011;60907;53.268;8.764;2023-02-03T11:06:59;18.55;;;2.88;;
72791;SDS011;60907;53.268;8.764;2023-02-03T11:09:39;22.00;;;2.83;;
72791;SDS011;60907;53.268;8.764;2023-02-03T11:12:09;21.15;;;2.88;;
72791;SDS011;60907;53.268;8.764;2023-02-03T11:14:38;19.52;;;4.07;;
72791;SDS011;60907;53.268;8.764;2023-02-03T11:17:07;19.02;;;3.35;;
72791;SDS011;60907;53.268;8.764;2023-02-03T11:19:36;24.23;;;3.30;;
72791;SDS011;60907;53.268;8.764;2023-02-03T11:22:03;17.05;;;2.60;;
72791;SDS011;60907;53.268;8.764;2023-02-03T11:24:30;18.58;;;2.90;;
72791;SDS011;60907;53.268;8.764;2023-02-03T11:29:39;26.80;;;2.78;;
72791;SDS011;60907;53.268;8.764;2023-02-03T11:32:17;24.60;;;2.85;;
72791;SDS011;60907;53.268;8.764;2023-02-03T11:34:47;23.05;;;3.28;;
72791;SDS011;60907;53.268;8.764;2023-02-03T11:37:37;18.17;;;2.78;;
72791;SDS011;60907;53.268;8.764;2023-02-03T11:42:32;20.97;;;3.07;;
72791;SDS011;60907;53.268;8.764;2023-02-03T11:45:19;18.90;;;2.55;;
72791;SDS011;60907;53.268;8.764;2023-02-03T12:04:20;14.75;;;2.08;;
72791;SDS011;60907;53.268;8.764;2023-02-03T12:18:19;14.65;;;1.67;;
72791;SDS011;60907;53.268;8.764;2023-02-03T12:26:25;17.40;;;3.17;;
72791;SDS011;60907;53.268;8.764;2023-02-03T12:31:36;14.93;;;2.22;;
72791;SDS011;60907;53.268;8.764;2023-02-03T12:36:39;20.58;;;2.50;;
72791;SDS011;60907;53.268;8.764;2023-02-03T12:39:11;15.27;;;3.20;;
72791;SDS011;60907;53.268;8.764;2023-02-03T12:41:41;15.05;;;2.45;;
72791;SDS011;60907;53.268;8.764;2023-02-03T12:44:18;18.48;;;3.45;;
72791;SDS011;60907;53.268;8.764;2023-02-03T12:46:54;14.10;;;2.83;;
72791;SDS011;60907;53.268;8.764;2023-02-03T12:49:43;13.82;;;2.17;;
72791;SDS011;60907;53.268;8.764;2023-02-03T12:52:20;21.67;;;2.85;;
72791;SDS011;60907;53.268;8.764;2023-02-03T12:55:02;16.70;;;2.33;;
72791;SDS011;60907;53.268;8.764;2023-02-03T12:57:43;12.32;;;2.20;;
72791;SDS011;60907;53.268;8.764;2023-02-03T13:08:41;19.20;;;2.72;;
72791;SDS011;60907;53.268;8.764;2023-02-03T13:14:11;14.85;;;2.42;;
72791;SDS011;60907;53.268;8.764;2023-02-03T13:16:43;20.85;;;3.13;;
72791;SDS011;60907;53.268;8.764;2023-02-03T13:19:14;16.25;;;2.22;;
72791;SDS011;60907;53.268;8.764;2023-02-03T13:21:42;15.98;;;2.38;;
72791;SDS011;60907;53.268;8.764;2023-02-03T13:24:10;20.48;;;2.65;;
72791;SDS011;60907;53.268;8.764;2023-02-03T13:34:34;20.35;;;2.80;;
72791;SDS011;60907;53.268;8.764;2023-02-03T13:40:18;17.65;;;2.22;;
72791;SDS011;60907;53.268;8.764;2023-02-03T13:42:52;16.98;;;2.35;;
72791;SDS011;60907;53.268;8.764;2023-02-03T13:45:42;14.13;;;2.20;;
72791;SDS011;60907;53.268;8.764;2023-02-03T13:48:31;17.30;;;3.03;;
72791;SDS011;60907;53.268;8.764;2023-02-03T13:51:15;18.90;;;2.92;;
72791;SDS011;60907;53.268;8.764;2023-02-03T13:53:43;13.60;;;2.33;;
72791;SDS011;60907;53.268;8.764;2023-02-03T13:56:24;14.35;;;2.20;;
72791;SDS011;60907;53.268;8.764;2023-02-03T14:01:32;16.30;;;2.90;;
72791;SDS011;60907;53.268;8.764;2023-02-03T14:04:06;11.95;;;2.17;;
72791;SDS011;60907;53.268;8.764;2023-02-03T14:06:54;15.27;;;2.05;;
72791;SDS011;60907;53.268;8.764;2023-02-03T14:14:43;22.60;;;2.83;;
72791;SDS011;60907;53.268;8.764;2023-02-03T14:19:59;17.40;;;2.28;;
72791;SDS011;60907;53.268;8.764;2023-02-03T14:22:26;14.85;;;2.05;;
72791;SDS011;60907;53.268;8.764;2023-02-03T14:24:52;14.80;;;1.80;;
72791;SDS011;60907;53.268;8.764;2023-02-03T14:30:02;15.13;;;2.40;;
72791;SDS011;60907;53.268;8.764;2023-02-03T14:32:51;14.45;;;1.70;;
72791;SDS011;60907;53.268;8.764;2023-02-03T14:35:23;15.48;;;3.35;;
72791;SDS011;60907;53.268;8.764;2023-02-03T14:38:12;17.58;;;2.60;;
72791;SDS011;60907;53.268;8.764;2023-02-03T14:40:58;15.60;;;2.95;;
72791;SDS011;60907;53.268;8.764;2023-02-03T14:43:38;11.05;;;2.17;;
72791;SDS011;60907;53.268;8.764;2023-02-03T14:46:49;12.43;;;2.17;;
72791;SDS011;60907;53.268;8.764;2023-02-03T14:57:50;14.88;;;1.98;;
72791;SDS011;60907;53.268;8.764;2023-02-03T15:07:56;14.07;;;2.63;;
72791;SDS011;60907;53.268;8.764;2023-02-03T15:10:29;13.40;;;1.90;;
72791;SDS011;60907;53.268;8.764;2023-02-03T15:13:27;15.10;;;2.10;;
72791;SDS011;60907;53.268;8.764;2023-02-03T15:16:12;21.15;;;2.50;;
72791;SDS011;60907;53.268;8.764;2023-02-03T15:18:40;19.67;;;2.92;;
72791;SDS011;60907;53.268;8.764;2023-02-03T15:21:12;19.48;;;2.63;;
72791;SDS011;60907;53.268;8.764;2023-02-03T15:23:40;16.75;;;2.75;;
72791;SDS011;60907;53.268;8.764;2023-02-03T15:28:38;13.38;;;2.47;;
72791;SDS011;60907;53.268;8.764;2023-02-03T15:31:05;17.73;;;2.00;;
72791;SDS011;60907;53.268;8.764;2023-02-03T15:33:39;12.98;;;1.95;;
72791;SDS011;60907;53.268;8.764;2023-02-03T15:36:10;7.43;;;1.73;;
72791;SDS011;60907;53.268;8.764;2023-02-03T15:38:43;14.65;;;2.25;;
72791;SDS011;60907;53.268;8.764;2023-02-03T15:41:21;21.65;;;3.20;;
72791;SDS011;60907;53.268;8.764;2023-02-03T15:43:49;13.27;;;1.90;;
72791;SDS011;60907;53.268;8.764;2023-02-03T15:46:19;15.93;;;2.28;;
72791;SDS011;60907;53.268;8.764;2023-02-03T15:48:56;13.50;;;1.92;;
72791;SDS011;60907;53.268;8.764;2023-02-03T15:51:36;16.85;;;2.30;;
72791;SDS011;60907;53.268;8.764;2023-02-03T15:56:43;18.58;;;2.38;;
72791;SDS011;60907;53.268;8.764;2023-02-03T15:59:20;17.75;;;2.15;;
72791;SDS011;60907;53.268;8.764;2023-02-03T16:01:47;12.88;;;2.10;;
72791;SDS011;60907;53.268;8.764;2023-02-03T16:04:13;10.98;;;1.90;;
72791;SDS011;60907;53.268;8.764;2023-02-03T16:06:39;21.85;;;3.60;;
72791;SDS011;60907;53.268;8.764;2023-02-03T16:14:48;17.23;;;2.05;;
72791;SDS011;60907;53.268;8.764;2023-02-03T16:25:19;26.40;;;3.13;;
72791;SDS011;60907;53.268;8.764;2023-02-03T16:30:54;16.30;;;2.70;;
72791;SDS011;60907;53.268;8.764;2023-02-03T16:33:43;13.68;;;2.40;;
72791;SDS011;60907;53.268;8.764;2023-02-03T16:36:28;16.42;;;2.17;;
72791;SDS011;60907;53.268;8.764;2023-02-03T16:39:12;18.23;;;2.97;;
72791;SDS011;60907;53.268;8.764;2023-02-03T16:41:56;21.95;;;2.92;;
72791;SDS011;60907;53.268;8.764;2023-02-03T16:44:41;18.52;;;2.75;;
72791;SDS011;60907;53.268;8.764;2023-02-03T16:47:26;16.38;;;2.95;;
72791;SDS011;60907;53.268;8.764;2023-02-03T16:50:15;23.83;;;5.00;;
72791;SDS011;60907;53.268;8.764;2023-02-03T16:53:01;34.33;;;7.60;;
72791;SDS011;60907;53.268;8.764;2023-02-03T16:55:26;22.88;;;4.25;;
72791;SDS011;60907;53.268;8.764;2023-02-03T16:57:52;14.95;;;2.47;;
72791;SDS011;60907;53.268;8.764;2023-02-03T17:00:17;22.92;;;5.85;;
72791;SDS011;60907;53.268;8.764;2023-02-03T17:02:46;19.10;;;3.85;;
72791;SDS011;60907;53.268;8.764;2023-02-03T17:05:15;14.48;;;4.25;;
72791;SDS011;60907;53.268;8.764;2023-02-03T17:07:41;20.40;;;3.08;;
72791;SDS011;60907;53.268;8.764;2023-02-03T17:10:07;16.25;;;2.05;;
72791;SDS011;60907;53.268;8.764;2023-02-03T17:12:33;20.52;;;2.50;;
72791;SDS011;60907;53.268;8.764;2023-02-03T17:14:58;15.98;;;2.65;;
72791;SDS011;60907;53.268;8.764;2023-02-03T17:17:24;16.73;;;3.05;;
72791;SDS011;60907;53.268;8.764;2023-02-03T17:19:50;19.90;;;3.28;;
72791;SDS011;60907;53.268;8.764;2023-02-03T17:22:15;15.75;;;2.28;;
72791;SDS011;60907;53.268;8.764;2023-02-03T17:24:41;22.67;;;2.88;;
72791;SDS011;60907;53.268;8.764;2023-02-03T17:27:06;17.40;;;2.30;;
72791;SDS011;60907;53.268;8.764;2023-02-03T17:29:32;19.98;;;3.70;;
72791;SDS011;60907;53.268;8.764;2023-02-03T17:31:57;17.85;;;3.08;;
72791;SDS011;60907;53.268;8.764;2023-02-03T17:34:22;18.52;;;3.22;;
72791;SDS011;60907;53.268;8.764;2023-02-03T17:36:48;19.05;;;2.20;;
72791;SDS011;60907;53.268;8.764;2023-02-03T17:39:13;19.80;;;4.00;;
72791;SDS011;60907;53.268;8.764;2023-02-03T17:41:39;18.85;;;3.63;;
72791;SDS011;60907;53.268;8.764;2023-02-03T17:44:04;22.25;;;3.20;;
72791;SDS011;60907;53.268;8.764;2023-02-03T17:46:30;25.30;;;3.70;;
72791;SDS011;60907;53.268;8.764;2023-02-03T17:48:55;19.83;;;3.30;;
72791;SDS011;60907;53.268;8.764;2023-02-03T17:51:22;20.63;;;2.53;;
72791;SDS011;60907;53.268;8.764;2023-02-03T17:53:54;18.55;;;2.65;;